Time;durP1;ratioP1;P1;durP2;ratioP2;P2;SDS_P1;SDS_P2;PMS_P1;PMS_P2;Temp;Humidity;BMP_temperature;BMP_pressure;BME280_temperature;BME280_humidity;BME280_pressure;Samples;Min_cycle;Max_cycle;Signal;HPM_P1;HPM_P2
2022/08/05 00:00:26;;;;;;;4.70;4.40;;;24.60;49.90;;;24.08;44.92;97539.78;5062847;28;20991;-66
2022/08/05 00:02:53;;;;;;;4.83;4.33;;;24.60;50.10;;;24.10;44.84;97536.72;5068131;28;20514;-65
2022/08/05 00:05:23;;;;;;;4.50;4.20;;;24.60;50.10;;;23.85;44.84;97481.03;5069351;28;20459;-65
2022/08/05 00:07:50;;;;;;;4.63;4.33;;;24.70;50.10;;;24.05;44.85;97530.22;5067474;28;20449;-67
2022/08/05 00:10:17;;;;;;;4.70;4.23;;;24.60;50.50;;;24.03;45.08;97537.97;5070610;28;20456;-66
2022/08/05 00:12:45;;;;;;;4.93;4.63;;;24.60;50.20;;;24.02;45.63;97547.38;5067540;28;20471;-66
2022/08/05 00:15:12;;;;;;;5.50;4.40;;;24.60;50.50;;;24.04;45.32;97525.81;5064930;28;20467;-65
2022/08/05 00:17:39;;;;;;;4.80;4.47;;;24.60;50.50;;;23.90;46.24;97533.34;5068055;28;20445;-65
2022/08/05 00:20:08;;;;;;;4.40;4.10;;;24.50;50.80;;;23.84;46.42;97534.56;5069433;28;20469;-66
2022/08/05 00:22:37;;;;;;;4.73;4.33;;;24.40;50.90;;;23.83;46.76;97533.78;5066836;28;20476;-65
2022/08/05 00:25:05;;;;;;;4.17;3.90;;;24.30;51.10;;;23.88;46.15;97532.81;5068082;28;20838;-66
2022/08/05 00:27:33;;;;;;;4.90;4.60;;;24.40;51.10;;;23.91;46.20;97524.72;5066109;28;20468;-65
2022/08/05 00:30:00;;;;;;;4.93;4.53;;;24.40;51.00;;;23.77;46.77;97524.81;5070363;28;20837;-66
2022/08/05 00:32:27;;;;;;;4.27;3.97;;;24.40;51.20;;;23.68;47.06;97523.94;5069074;28;20455;-65
2022/08/05 00:34:54;;;;;;;4.83;4.47;;;24.30;51.30;;;23.57;47.33;97522.56;5068084;28;20453;-66
2022/08/05 00:37:22;;;;;;;4.53;4.13;;;24.20;51.50;;;23.57;47.35;97520.63;5068391;28;20506;-67
2022/08/05 00:39:51;;;;;;;4.57;4.23;;;24.20;51.70;;;23.64;47.23;97520.19;5069941;28;20935;-66
2022/08/05 00:42:30;;;;;;;5.60;5.20;;;24.20;51.70;;;23.61;47.50;97529.09;5065436;28;20476;-65
2022/08/05 00:44:57;;;;;;;5.20;4.50;;;24.20;51.80;;;23.51;47.75;97523.81;5069105;28;20491;-66
2022/08/05 00:47:25;;;;;;;5.47;5.00;;;24.10;51.90;;;23.61;47.72;97529.09;5083916;28;20464;-65
2022/08/05 00:49:52;;;;;;;6.40;4.30;;;24.10;51.90;;;23.55;47.91;97511.03;5084591;28;20956;-65
2022/08/05 00:52:19;;;;;;;5.37;4.50;;;24.10;52.00;;;23.47;47.97;97513.44;5060428;28;20934;-67
2022/08/05 00:54:47;;;;;;;9.73;4.47;;;24.10;52.20;;;23.45;48.22;97512.94;5048768;28;20478;-65
2022/08/05 00:57:16;;;;;;;4.67;4.37;;;24.00;52.20;;;23.38;48.32;97514.50;5061461;28;20480;-66
2022/08/05 00:59:43;;;;;;;5.10;4.60;;;24.00;52.30;;;23.32;48.82;97513.78;5098374;28;20444;-66
2022/08/05 01:02:11;;;;;;;5.43;4.93;;;23.90;52.60;;;23.18;48.43;97455.94;5068300;28;20504;-67
2022/08/05 01:04:38;;;;;;;5.00;4.70;;;24.00;52.60;;;23.54;48.24;97509.41;5066618;28;20456;-65
2022/08/05 01:07:06;;;;;;;5.20;4.80;;;24.00;52.60;;;23.44;48.54;97508.53;5069186;28;20452;-65
2022/08/05 01:09:33;;;;;;;4.90;4.60;;;24.00;52.60;;;23.43;48.40;97503.34;5068014;28;20453;-65
2022/08/05 01:12:07;;;;;;;5.20;4.70;;;24.00;52.60;;;23.44;48.62;97505.78;5067568;28;20472;-66
2022/08/05 01:14:40;;;;;;;4.33;4.03;;;24.00;52.70;;;23.53;48.34;97503.09;5067800;28;20463;-65
2022/08/05 01:17:12;;;;;;;8.57;5.37;;;24.00;52.70;;;23.60;48.38;97502.66;5067837;28;20451;-66
2022/08/05 01:19:45;;;;;;;4.93;4.63;;;24.10;52.70;;;23.58;48.36;97499.38;5068719;28;20460;-66
2022/08/05 01:22:26;;;;;;;5.30;4.97;;;24.10;52.70;;;23.42;48.71;97494.22;5067110;28;20468;-68
2022/08/05 01:25:28;;;;;;;4.77;4.40;;;24.00;52.80;;;23.48;48.70;97495.75;5068560;28;20487;-66
2022/08/05 01:28:16;;;;;;;5.13;4.73;;;24.00;52.80;;;23.35;48.92;97488.34;5063096;28;20526;-67
2022/08/05 01:30:51;;;;;;;4.60;4.30;;;23.90;53.00;;;23.35;49.12;97491.13;5069301;28;20784;-66
2022/08/05 01:33:22;;;;;;;5.20;4.90;;;23.90;53.20;;;23.36;49.09;97486.44;5066135;28;20500;-67
2022/08/05 01:35:50;;;;;;;4.83;4.53;;;23.90;53.10;;;23.40;49.24;97493.75;5060529;28;20460;-66
2022/08/05 01:38:20;;;;;;;4.33;4.03;;;23.90;53.20;;;23.38;49.11;97490.47;5060120;28;20448;-66
2022/08/05 01:40:48;;;;;;;5.60;5.20;;;23.90;53.20;;;23.34;49.25;97489.50;5067317;28;20463;-65
2022/08/05 01:43:17;;;;;;;4.90;4.50;;;23.90;53.30;;;23.32;49.31;97498.06;5060239;28;20479;-66
2022/08/05 01:45:45;;;;;;;6.23;5.00;;;23.90;53.40;;;23.24;49.67;97489.69;5057187;28;20444;-66
2022/08/05 01:48:13;;;;;;;5.23;4.80;;;23.80;53.40;;;23.16;49.86;97488.50;5067600;28;20518;-67
2022/08/05 01:50:41;;;;;;;5.10;4.70;;;23.70;53.60;;;23.06;50.53;97490.38;5067160;28;20464;-65
2022/08/05 01:53:13;;;;;;;5.90;5.30;;;23.70;54.00;;;22.90;50.81;97497.34;5066841;28;20971;-66
2022/08/05 01:55:44;;;;;;;5.67;5.27;;;23.50;54.00;;;22.89;50.65;97492.94;5066620;28;20451;-66
2022/08/05 01:58:13;;;;;;;6.03;4.80;;;23.50;54.20;;;22.95;50.77;97488.16;5066144;28;20460;-66
2022/08/05 02:00:48;;;;;;;5.17;4.83;;;23.50;54.40;;;23.06;50.69;97489.56;5067461;28;20517;-66
2022/08/05 02:03:22;;;;;;;5.50;5.10;;;23.50;54.40;;;23.03;50.88;97488.22;5065073;28;21029;-67
2022/08/05 02:05:50;;;;;;;5.40;4.90;;;23.50;54.40;;;23.09;50.85;97490.88;5067710;28;20506;-66
2022/08/05 02:08:17;;;;;;;6.20;5.07;;;23.60;54.50;;;23.08;50.90;97487.28;5064696;28;20522;-66
2022/08/05 02:10:53;;;;;;;5.97;5.43;;;23.60;54.50;;;23.10;51.00;97496.06;5068296;28;20514;-66
2022/08/05 02:13:38;;;;;;;5.30;4.80;;;23.60;54.60;;;23.09;50.96;97494.44;5063499;28;21002;-66
2022/08/05 02:16:18;;;;;;;6.83;4.93;;;23.60;54.60;;;23.07;51.13;97491.19;5046864;28;20491;-65
2022/08/05 02:18:50;;;;;;;6.40;4.90;;;23.70;54.80;;;23.07;51.07;97491.19;5052537;28;20463;-66
2022/08/05 02:21:22;;;;;;;5.73;5.23;;;23.60;54.70;;;23.06;51.44;97492.31;5066872;28;20459;-68
2022/08/05 02:23:56;;;;;;;5.97;5.17;;;23.60;54.90;;;23.00;51.61;97491.59;5064144;28;20575;-68
2022/08/05 02:26:35;;;;;;;5.03;4.73;;;23.60;55.10;;;22.95;51.61;97499.16;5066338;28;20459;-68
2022/08/05 02:29:04;;;;;;;5.30;4.90;;;23.50;55.20;;;22.93;51.75;97505.78;5066942;28;20456;-67
2022/08/05 02:31:35;;;;;;;5.63;5.03;;;23.50;55.40;;;22.76;52.26;97514.72;5067997;28;20448;-67
2022/08/05 02:34:10;;;;;;;5.50;4.80;;;23.30;55.40;;;22.69;52.56;97508.78;5066695;28;20785;-65
2022/08/05 02:36:44;;;;;;;5.23;4.93;;;23.30;55.60;;;22.86;52.26;97499.91;5066456;28;20452;-65
2022/08/05 02:39:12;;;;;;;5.27;4.87;;;23.30;55.70;;;22.83;52.61;97502.47;5063676;28;20449;-65
2022/08/05 02:41:41;;;;;;;6.80;5.63;;;23.30;55.80;;;22.93;52.38;97496.72;5063138;28;20521;-66
2022/08/05 02:44:10;;;;;;;6.27;5.10;;;23.40;55.80;;;22.82;52.54;97496.13;5056766;28;20465;-67
2022/08/05 02:46:40;;;;;;;5.03;4.70;;;23.40;55.80;;;22.89;52.58;97496.53;5067823;28;20451;-65
2022/08/05 02:49:08;;;;;;;4.97;4.67;;;23.40;55.90;;;22.94;52.43;97487.34;5065575;28;20822;-66
2022/08/05 02:51:38;;;;;;;5.27;4.97;;;23.50;56.00;;;22.93;52.56;97491.22;5067754;28;20974;-66
2022/08/05 02:54:06;;;;;;;5.33;4.93;;;23.50;56.00;;;22.75;53.03;97496.56;5064979;28;20457;-65
2022/08/05 02:56:34;;;;;;;6.17;5.30;;;23.30;56.10;;;22.86;52.94;97490.81;5065147;28;20959;-65
2022/08/05 02:59:02;;;;;;;6.30;5.80;;;23.40;56.20;;;22.81;52.63;97477.97;5062902;28;20456;-65
2022/08/05 03:01:31;;;;;;;5.90;5.50;;;23.40;56.20;;;22.96;52.65;97481.50;5068418;28;20453;-65
2022/08/05 03:04:03;;;;;;;5.30;4.90;;;23.50;56.30;;;22.95;52.83;97477.97;5069986;28;20476;-66
2022/08/05 03:06:31;;;;;;;5.93;5.53;;;23.50;56.40;;;22.89;53.06;97477.25;5070530;28;20436;-65
2022/08/05 03:08:59;;;;;;;7.20;5.50;;;23.50;56.80;;;22.83;53.09;97470.25;5069338;28;20452;-66
2022/08/05 03:11:27;;;;;;;5.60;5.20;;;23.50;56.60;;;22.80;52.96;97459.81;5067951;28;20701;-66
2022/08/05 03:13:55;;;;;;;6.27;5.50;;;23.50;56.60;;;23.00;52.97;97479.78;5069384;28;20458;-67
2022/08/05 03:16:22;;;;;;;6.90;5.90;;;23.50;56.60;;;22.93;53.08;97475.50;5070742;28;20844;-67
2022/08/05 03:18:50;;;;;;;5.63;5.23;;;23.50;56.60;;;22.90;53.17;97481.63;5070504;28;20456;-65
2022/08/05 03:21:18;;;;;;;6.40;5.90;;;23.50;56.70;;;22.89;53.27;97490.19;5071560;28;20819;-66
2022/08/05 03:23:46;;;;;;;5.30;4.90;;;23.50;56.80;;;22.85;53.55;97525.81;5068682;28;20840;-66
2022/08/05 03:26:14;;;;;;;5.67;5.27;;;23.40;56.90;;;22.66;53.07;97516.84;5068932;28;20464;-65
2022/08/05 03:28:41;;;;;;;5.87;5.37;;;23.60;56.80;;;22.98;52.30;97504.06;5069772;28;20518;-67
2022/08/05 03:31:09;;;;;;;6.10;5.50;;;23.60;56.20;;;22.98;52.63;97553.66;5071090;28;20522;-65
2022/08/05 03:33:37;;;;;;;12.37;5.80;;;23.60;56.50;;;23.09;52.11;97557.00;5069831;28;20501;-65
2022/08/05 03:36:06;;;;;;;5.13;4.60;;;23.70;56.40;;;22.99;52.45;97558.84;5070111;28;20782;-65
2022/08/05 03:38:40;;;;;;;6.23;5.63;;;23.60;56.30;;;22.90;52.44;97544.97;5065044;28;20440;-67
2022/08/05 03:41:08;;;;;;;5.73;5.23;;;23.50;56.30;;;22.76;52.61;97545.00;5054716;28;20786;-67
2022/08/05 03:43:35;;;;;;;5.70;5.20;;;23.40;56.40;;;22.67;53.29;97543.25;5084379;28;20500;-66
2022/08/05 03:46:04;;;;;;;5.90;5.40;;;23.30;56.60;;;22.84;52.86;97548.16;5069959;28;20478;-66
2022/08/05 03:48:31;;;;;;;5.80;5.20;;;23.30;56.60;;;22.90;52.69;97542.22;5068629;28;20509;-66
2022/08/05 03:51:06;;;;;;;6.03;5.33;;;23.30;56.50;;;22.76;52.80;97545.00;5069624;28;20452;-66
2022/08/05 03:53:40;;;;;;;5.70;5.20;;;23.40;56.60;;;22.84;52.58;97534.38;5067737;28;20820;-65
2022/08/05 03:56:13;;;;;;;6.00;5.57;;;23.40;56.60;;;22.86;52.70;97546.72;5066729;28;20869;-65
2022/08/05 03:58:45;;;;;;;5.67;5.27;;;23.40;56.60;;;22.78;53.09;97536.41;5069118;28;20461;-65
2022/08/05 04:01:15;;;;;;;5.63;5.23;;;23.40;56.70;;;22.70;52.99;97526.16;5049736;28;20446;-70
2022/08/05 04:03:44;;;;;;;5.53;5.23;;;23.40;56.60;;;22.83;53.16;97544.59;5054044;28;20532;-66
2022/08/05 04:06:12;;;;;;;5.90;5.40;;;23.40;56.70;;;22.87;52.94;97537.34;5068846;28;20456;-66
2022/08/05 04:08:42;;;;;;;6.50;5.30;;;23.40;56.80;;;22.99;52.25;97541.50;5065497;28;20486;-65
2022/08/05 04:11:10;;;;;;;6.20;5.70;;;23.50;56.40;;;23.24;51.11;97536.53;5068805;28;20471;-68
2022/08/05 04:13:41;;;;;;;6.77;5.40;;;23.70;56.10;;;23.29;51.06;97534.50;5067298;28;20452;-66
2022/08/05 04:16:09;;;;;;;6.23;5.63;;;23.80;55.80;;;23.36;50.33;97536.84;5067513;28;21070;-66
2022/08/05 04:18:38;;;;;;;11.60;5.30;;;23.90;55.50;;;23.48;50.07;97536.28;5068100;28;20457;-66
2022/08/05 04:21:06;;;;;;;6.03;5.50;;;24.00;55.40;;;23.48;49.99;97539.03;5070643;28;20849;-66
2022/08/05 04:23:35;;;;;;;5.53;5.13;;;24.00;55.20;;;23.75;49.39;97543.63;5065770;28;20518;-65
2022/08/05 04:26:05;;;;;;;6.10;5.50;;;24.20;55.20;;;23.68;49.51;97545.19;5067628;28;20535;-68
2022/08/05 04:28:32;;;;;;;5.73;5.23;;;24.30;55.20;;;23.73;49.38;97545.88;5066683;28;20457;-65
2022/08/05 04:31:00;;;;;;;6.07;5.60;;;24.30;55.10;;;23.86;48.39;97546.09;5069937;28;21013;-66
2022/08/05 04:33:28;;;;;;;7.23;5.80;;;24.40;54.80;;;24.01;48.59;97544.91;5068611;28;20540;-67
2022/08/05 04:35:55;;;;;;;5.93;5.53;;;24.50;54.70;;;24.24;47.60;97544.88;5068295;28;20447;-65
2022/08/05 04:38:23;;;;;;;7.70;5.87;;;24.70;54.40;;;24.73;46.32;97547.69;5068285;28;20475;-65
2022/08/05 04:40:50;;;;;;;5.80;5.30;;;25.30;53.70;;;24.98;45.59;97553.63;5067946;28;20534;-66
2022/08/05 04:43:19;;;;;;;6.13;5.40;;;25.60;53.40;;;25.54;44.59;97544.75;5068056;28;20545;-65
2022/08/05 04:45:46;;;;;;;7.10;5.30;;;26.10;52.80;;;26.10;43.27;97544.84;5067157;28;20989;-66
2022/08/05 04:48:15;;;;;;;8.60;5.80;;;26.90;51.70;;;26.47;41.55;97549.97;5068933;28;20814;-65
2022/08/05 04:50:44;;;;;;;9.00;5.50;;;27.30;50.40;;;27.03;40.34;97535.16;5069980;28;20947;-65
2022/08/05 04:53:13;;;;;;;7.87;4.80;;;27.90;50.30;;;27.48;39.05;97552.28;5099301;28;20469;-66
2022/08/05 04:55:42;;;;;;;5.40;5.00;;;28.30;49.10;;;26.72;40.08;97552.94;5067529;28;20441;-67
2022/08/05 04:58:13;;;;;;;4.90;4.50;;;27.80;49.00;;;25.93;41.51;97554.00;5068315;28;20461;-66
2022/08/05 05:00:41;;;;;;;6.23;5.50;;;27.00;49.70;;;25.89;41.49;97555.78;5068628;28;20456;-66
2022/08/05 05:03:09;;;;;;;4.90;4.50;;;26.70;49.90;;;26.24;41.00;97561.28;5095083;28;20461;-65
2022/08/05 05:05:38;;;;;;;5.63;5.03;;;27.00;49.80;;;26.47;40.20;97555.50;5068377;28;20449;-67
2022/08/05 05:08:08;;;;;;;5.10;4.80;;;27.30;49.40;;;26.49;39.84;97563.47;5067167;28;20461;-65
2022/08/05 05:10:40;;;;;;;5.30;4.80;;;27.30;49.10;;;26.44;40.53;97572.75;5067884;28;20453;-65
2022/08/05 05:13:09;;;;;;;4.67;4.27;;;27.40;49.10;;;25.78;41.55;97573.88;5068330;28;20455;-65
2022/08/05 05:15:36;;;;;;;5.50;5.10;;;26.80;49.30;;;25.23;43.04;97587.16;5066844;28;20433;-65
2022/08/05 05:18:07;;;;;;;9.43;5.53;;;26.20;50.00;;;25.48;42.08;97598.56;5064410;28;20878;-66
2022/08/05 05:20:36;;;;;;;4.73;4.33;;;26.10;50.20;;;25.46;41.71;97551.88;5065049;28;20437;-66
2022/08/05 05:23:04;;;;;;;5.30;4.90;;;26.40;49.90;;;25.30;42.32;97593.81;5065570;28;20525;-66
2022/08/05 05:25:32;;;;;;;4.90;4.50;;;26.10;49.90;;;24.98;43.19;97606.94;5066201;28;20459;-67
2022/08/05 05:27:59;;;;;;;6.00;4.87;;;25.80;50.20;;;24.55;43.90;97605.63;5066167;28;20448;-67
2022/08/05 05:30:26;;;;;;;5.97;4.80;;;25.40;50.60;;;24.55;44.26;97621.34;5063676;28;20453;-67
2022/08/05 05:32:56;;;;;;;5.23;4.93;;;25.30;50.90;;;24.85;43.63;97630.78;5067346;28;20456;-67
2022/08/05 05:35:24;;;;;;;5.23;4.73;;;25.40;50.90;;;24.59;44.08;97636.97;5066829;28;20444;-67
2022/08/05 05:37:54;;;;;;;6.70;4.70;;;25.30;51.00;;;24.24;45.02;97650.59;5061837;28;20510;-66
2022/08/05 05:40:24;;;;;;;5.13;4.63;;;25.00;51.40;;;24.43;45.19;97644.03;5067733;28;20464;-66
2022/08/05 05:42:52;;;;;;;6.63;5.97;;;25.00;51.80;;;24.90;44.19;97635.34;5065327;28;20463;-67
2022/08/05 05:45:20;;;;;;;5.30;4.80;;;25.40;51.30;;;25.35;43.31;97639.84;5066101;28;20468;-67
2022/08/05 05:47:48;;;;;;;4.77;4.37;;;25.90;51.00;;;26.36;41.19;97631.75;5066073;28;20453;-66
2022/08/05 05:50:17;;;;;;;5.80;5.30;;;26.90;50.10;;;26.87;40.18;97629.97;5067167;28;20448;-66
2022/08/05 05:52:48;;;;;;;7.13;4.97;;;27.40;49.60;;;27.66;38.75;97614.81;5063811;28;20468;-66
2022/08/05 05:55:17;;;;;;;5.30;4.80;;;28.20;49.10;;;27.64;38.41;97610.78;5066049;28;20457;-66
2022/08/05 05:57:47;;;;;;;5.10;4.70;;;28.60;48.50;;;27.57;38.27;97578.03;5062242;28;20499;-67
2022/08/05 06:00:17;;;;;;;8.00;5.47;;;28.50;48.60;;;27.79;38.51;97628.78;5072043;28;20464;-68
2022/08/05 06:02:46;;;;;;;6.30;5.70;;;28.70;48.50;;;28.05;38.16;97622.97;5066007;28;20456;-68
2022/08/05 06:05:16;;;;;;;9.03;5.50;;;29.00;48.20;;;27.79;38.58;97629.59;5065426;28;20469;-68
2022/08/05 06:07:48;;;;;;;6.63;6.03;;;28.90;48.20;;;27.99;37.87;97636.28;5064269;28;20460;-69
2022/08/05 06:10:16;;;;;;;7.07;4.90;;;29.00;48.10;;;27.86;38.41;97645.69;5059928;28;20621;-68
2022/08/05 06:12:43;;;;;;;6.33;5.77;;;28.90;48.20;;;27.04;40.49;97663.50;5063329;28;20972;-68
2022/08/05 06:15:11;;;;;;;6.73;6.17;;;28.00;49.10;;;27.03;40.96;97665.44;5066888;28;20493;-67
2022/08/05 06:17:38;;;;;;;12.50;6.10;;;27.90;49.50;;;26.89;40.88;97681.47;5066928;28;20452;-69
2022/08/05 06:20:07;;;;;;;5.83;5.27;;;27.70;49.40;;;26.06;42.45;97734.03;5068140;28;20533;-69
2022/08/05 06:22:35;;;;;;;7.27;5.83;;;27.00;50.20;;;25.38;44.84;97738.72;5064100;28;20479;-68
2022/08/05 06:25:06;;;;;;;6.60;5.40;;;26.20;51.50;;;24.92;46.77;97727.03;5082523;28;20823;-68
2022/08/05 06:27:34;;;;;;;6.37;5.77;;;25.80;52.80;;;24.67;47.99;97731.25;5064252;28;20689;-68
2022/08/05 06:30:01;;;;;;;6.40;5.90;;;25.40;53.60;;;24.51;48.71;97730.81;5068382;28;20486;-68
2022/08/05 06:32:29;;;;;;;6.20;5.40;;;25.20;54.10;;;24.39;48.93;97732.19;5067126;28;20477;-67
2022/08/05 06:34:58;;;;;;;6.93;5.90;;;25.10;54.50;;;24.44;49.16;97734.00;5067090;28;20834;-67
2022/08/05 06:37:26;;;;;;;5.43;4.90;;;25.00;54.90;;;24.53;49.16;97720.25;5066005;28;20482;-68
2022/08/05 06:39:54;;;;;;;8.23;5.60;;;25.10;55.00;;;24.57;49.42;97744.16;5069132;28;20447;-67
2022/08/05 06:42:22;;;;;;;6.13;5.63;;;25.20;55.10;;;24.47;49.08;97723.16;5066055;28;20537;-68
2022/08/05 06:44:50;;;;;;;5.60;5.10;;;25.30;55.10;;;24.57;49.80;97744.16;5067105;28;20592;-67
2022/08/05 06:47:17;;;;;;;10.10;5.03;;;25.20;55.30;;;24.33;50.39;97756.31;5068592;28;20463;-68
2022/08/05 06:49:44;;;;;;;5.83;5.33;;;25.10;55.90;;;24.28;50.61;97780.50;5068334;28;20525;-67
2022/08/05 06:52:12;;;;;;;7.43;5.07;;;24.90;55.90;;;24.06;51.37;97784.84;5069347;28;20448;-68
2022/08/05 06:54:40;;;;;;;5.20;4.47;;;24.80;56.20;;;23.89;52.00;97782.72;5068095;28;20862;-66
2022/08/05 06:57:07;;;;;;;6.73;4.20;;;24.60;56.50;;;23.84;52.46;97780.03;5052029;28;20450;-66
2022/08/05 06:59:36;;;;;;;4.70;4.30;;;24.50;56.80;;;23.76;52.37;97759.53;5063175;28;20946;-67
2022/08/05 07:02:03;;;;;;;4.93;4.50;;;24.50;56.90;;;23.90;52.52;97787.09;5063863;28;20453;-67
2022/08/05 07:04:31;;;;;;;5.13;4.63;;;24.50;57.00;;;23.96;52.64;97790.53;5102042;28;20978;-67
2022/08/05 07:06:59;;;;;;;5.70;4.70;;;24.60;57.10;;;24.11;52.16;97814.25;5069006;28;21026;-68
2022/08/05 07:09:26;;;;;;;5.20;4.50;;;24.70;57.20;;;24.35;51.74;97818.72;5068347;28;20826;-67
2022/08/05 07:11:54;;;;;;;5.57;4.93;;;24.90;57.20;;;24.44;51.70;97811.28;5063518;28;20838;-67
2022/08/05 07:17:08;;;;;;;5.80;5.20;;;25.00;57.20;;;24.56;51.44;97821.78;5070096;28;21015;-67
2022/08/05 07:19:36;;;;;;;8.90;4.90;;;25.10;57.30;;;24.90;51.07;97817.69;5068846;28;20456;-68
2022/08/05 07:22:03;;;;;;;4.43;4.03;;;25.40;57.20;;;25.25;50.17;97822.56;5069424;28;20963;-66
2022/08/05 07:24:30;;;;;;;4.50;4.10;;;25.70;56.90;;;25.30;49.71;97820.50;5068585;28;20835;-67
2022/08/05 07:26:58;;;;;;;6.90;4.47;;;25.80;56.50;;;25.33;48.82;97830.13;5070590;28;20464;-68
2022/08/05 07:29:25;;;;;;;4.90;4.20;;;25.90;56.00;;;25.44;49.18;97827.88;5069945;28;20876;-68
2022/08/05 07:31:52;;;;;;;6.67;4.70;;;26.00;56.10;;;25.51;49.52;97839.34;5067680;28;20525;-68
2022/08/05 07:34:21;;;;;;;5.20;3.77;;;26.00;56.30;;;25.59;48.75;97834.97;5069018;28;20460;-68
2022/08/05 07:36:48;;;;;;;4.70;3.83;;;26.10;55.90;;;25.70;48.03;97839.06;5068078;28;20871;-68
2022/08/05 07:39:15;;;;;;;3.30;3.00;;;26.20;55.70;;;25.90;47.50;97834.09;5066064;28;20464;-68
2022/08/05 07:41:42;;;;;;;11.10;3.40;;;26.40;55.30;;;26.12;46.65;97835.13;5086173;28;20449;-68
2022/08/05 07:44:10;;;;;;;6.57;3.57;;;26.60;54.80;;;26.31;46.09;97840.38;5068772;28;20468;-69
2022/08/05 07:46:37;;;;;;;7.13;3.77;;;26.70;54.60;;;26.35;46.08;97826.72;5069810;28;20489;-66
2022/08/05 07:49:04;;;;;;;3.63;3.33;;;26.90;54.60;;;26.43;45.94;97832.25;5069749;28;20452;-67
2022/08/05 07:51:37;;;;;;;4.63;3.33;;;26.90;54.40;;;26.38;45.92;97835.16;5067569;28;20456;-68
2022/08/05 07:54:06;;;;;;;5.07;2.80;;;27.00;54.10;;;26.21;45.57;97829.63;5102421;28;20452;-69
2022/08/05 07:56:33;;;;;;;4.90;3.20;;;26.80;53.80;;;26.30;45.38;97830.47;5069915;28;20467;-68
2022/08/05 07:59:01;;;;;;;3.63;3.30;;;26.80;53.90;;;26.51;45.57;97827.03;5060070;28;20460;-67
2022/08/05 08:01:29;;;;;;;3.37;3.03;;;26.90;54.10;;;26.71;44.92;97831.09;5068755;28;20464;-67
2022/08/05 08:03:56;;;;;;;3.27;3.07;;;27.10;53.80;;;26.94;45.01;97836.50;5062708;28;20453;-67
2022/08/05 08:06:23;;;;;;;3.00;2.80;;;27.30;53.90;;;27.14;44.49;97832.19;5097246;28;20453;-68
2022/08/05 08:08:52;;;;;;;4.93;3.20;;;27.60;53.60;;;27.19;43.87;97817.34;5063987;28;20455;-68
2022/08/05 08:11:19;;;;;;;3.67;3.37;;;27.60;53.20;;;27.39;43.36;97826.91;5067013;28;20472;-67
2022/08/05 08:13:46;;;;;;;3.50;3.20;;;27.80;53.10;;;27.57;42.71;97822.94;5069058;28;20452;-67
2022/08/05 08:16:13;;;;;;;3.13;2.80;;;28.00;52.90;;;27.58;42.83;97832.09;5069478;28;20456;-69
2022/08/05 08:18:41;;;;;;;8.23;2.93;;;28.10;52.80;;;27.62;42.61;97835.84;5065674;28;20473;-67
2022/08/05 08:21:08;;;;;;;3.53;3.23;;;28.10;52.80;;;27.67;42.78;97821.75;5059371;28;20461;-69
2022/08/05 08:23:35;;;;;;;3.23;2.93;;;28.20;52.60;;;27.41;43.12;97833.78;5067256;28;20973;-69
2022/08/05 08:26:04;;;;;;;3.53;3.20;;;28.00;52.50;;;27.08;44.09;97834.34;5068872;28;20470;-69
2022/08/05 08:28:31;;;;;;;3.77;3.47;;;27.70;52.80;;;27.13;44.06;97836.94;5064415;28;20598;-68
2022/08/05 08:30:59;;;;;;;3.53;3.23;;;27.70;53.10;;;27.06;44.22;97835.81;5070677;28;20452;-68
2022/08/05 08:33:26;;;;;;;4.57;3.47;;;27.60;53.20;;;27.03;44.42;97840.06;5068053;28;20445;-68
2022/08/05 08:35:54;;;;;;;3.20;2.90;;;27.60;53.40;;;27.05;44.30;97846.09;5067407;28;21116;-68
2022/08/05 08:38:21;;;;;;;3.50;3.20;;;27.50;53.20;;;27.15;43.83;97848.53;5066798;28;20452;-68
2022/08/05 08:40:48;;;;;;;3.70;3.40;;;27.60;53.10;;;27.15;43.97;97844.94;5068403;28;20467;-68
2022/08/05 08:43:20;;;;;;;8.73;3.83;;;27.70;53.20;;;27.00;43.71;97849.03;5068807;28;20897;-68
2022/08/05 08:45:50;;;;;;;3.40;3.10;;;27.50;52.80;;;27.04;43.61;97852.78;5068714;28;20505;-68
2022/08/05 08:48:20;;;;;;;3.77;3.40;;;27.60;52.80;;;27.00;44.15;97862.91;5048926;28;20556;-68
2022/08/05 08:50:48;;;;;;;3.77;3.30;;;27.50;53.00;;;26.71;44.24;97806.19;5061382;28;20530;-68
2022/08/05 08:53:17;;;;;;;3.20;2.90;;;27.40;53.10;;;27.25;42.97;97854.88;5066261;28;20451;-69
2022/08/05 08:55:45;;;;;;;3.17;2.97;;;27.70;52.70;;;27.44;42.79;97866.38;5067127;28;20928;-66
2022/08/05 08:58:15;;;;;;;6.70;3.30;;;27.80;52.60;;;27.66;42.79;97853.44;5067451;28;20444;-69
2022/08/05 09:00:44;;;;;;;3.93;3.20;;;28.00;52.80;;;28.30;42.22;97859.16;5067826;28;20452;-67
2022/08/05 09:03:12;;;;;;;3.63;3.30;;;28.50;52.70;;;28.84;40.96;97863.19;5067410;28;20857;-67
2022/08/05 09:05:39;;;;;;;4.20;2.83;;;29.00;52.30;;;29.18;39.46;97857.63;5066408;28;20473;-67
2022/08/05 09:08:08;;;;;;;4.10;3.43;;;29.50;51.20;;;29.03;39.29;97854.31;5066420;28;20493;-68
2022/08/05 09:10:35;;;;;;;3.60;2.80;;;29.60;50.80;;;28.93;39.72;97852.78;5066695;28;20464;-67
2022/08/05 09:13:03;;;;;;;6.80;3.70;;;29.50;50.70;;;28.97;39.44;97864.88;5063561;28;20465;-69
2022/08/05 09:15:30;;;;;;;3.40;3.00;;;29.50;50.70;;;29.02;39.59;97858.25;5067011;28;20453;-69
2022/08/05 09:17:59;;;;;;;3.30;3.00;;;29.40;50.70;;;28.72;39.47;97824.19;5063486;28;20449;-68
2022/08/05 09:20:27;;;;;;;4.70;3.63;;;29.40;50.60;;;28.97;39.85;97855.72;5068956;28;20449;-67
2022/08/05 09:23:09;;;;;;;6.83;3.10;;;29.40;50.80;;;28.54;40.78;97852.94;5047498;28;20476;-68
2022/08/05 09:25:39;;;;;;;3.83;3.30;;;29.10;51.10;;;28.27;41.23;97855.09;5062556;28;20563;-69
2022/08/05 09:28:13;;;;;;;4.23;3.83;;;28.90;51.20;;;28.34;41.44;97854.56;5066031;28;20448;-66
2022/08/05 09:30:44;;;;;;;3.63;3.33;;;28.80;51.90;;;28.24;41.05;97844.66;5067327;28;20449;-67
2022/08/05 09:33:14;;;;;;;3.50;3.10;;;28.80;51.50;;;28.33;41.19;97852.13;5066068;28;20449;-68
2022/08/05 09:35:57;;;;;;;3.90;3.17;;;28.80;51.60;;;28.50;40.91;97849.22;5066692;28;20543;-67
2022/08/05 09:38:25;;;;;;;4.67;3.40;;;29.00;51.40;;;28.43;41.12;97857.25;5065703;28;20471;-67
2022/08/05 09:40:55;;;;;;;2.87;2.67;;;28.90;51.50;;;28.30;40.57;97845.28;5067684;28;20459;-68
2022/08/05 09:43:32;;;;;;;3.33;3.03;;;28.80;51.10;;;28.18;39.85;97846.00;5094555;28;20454;-67
2022/08/05 09:46:00;;;;;;;3.43;3.13;;;28.70;50.40;;;28.16;39.80;97833.59;5047495;28;20481;-67
2022/08/05 09:48:31;;;;;;;3.40;3.10;;;28.70;50.20;;;28.31;39.40;97844.13;5078811;28;20509;-67
2022/08/05 09:51:01;;;;;;;2.73;2.50;;;28.70;50.00;;;28.38;39.28;97838.03;5067084;28;20464;-67
2022/08/05 09:53:31;;;;;;;2.77;2.60;;;28.80;50.00;;;28.50;39.20;97838.09;5067452;28;20946;-68
2022/08/05 09:56:00;;;;;;;3.30;3.00;;;28.90;49.80;;;28.51;39.08;97841.69;5067503;28;20809;-67
2022/08/05 09:58:28;;;;;;;2.60;2.40;;;28.90;50.00;;;28.51;38.82;97831.38;5064580;28;20460;-67
2022/08/05 10:01:00;;;;;;;5.53;2.87;;;29.00;49.60;;;28.50;38.76;97821.44;5078379;28;20470;-68
2022/08/05 10:03:29;;;;;;;4.10;2.57;;;29.00;49.60;;;28.94;38.00;97820.25;5063063;28;20837;-69
2022/08/05 10:06:07;;;;;;;2.40;2.30;;;29.30;49.40;;;29.15;37.42;97820.19;5066272;28;20995;-66
2022/08/05 10:08:37;;;;;;;2.63;2.43;;;29.50;49.20;;;29.15;37.17;97813.81;5065235;28;20467;-69
2022/08/05 10:11:06;;;;;;;2.80;2.47;;;29.50;48.90;;;29.30;36.49;97812.34;5064583;28;20518;-70
2022/08/05 10:13:37;;;;;;;2.30;2.10;;;29.60;48.50;;;29.42;33.64;97812.41;5062952;28;20473;-68
2022/08/05 10:16:06;;;;;;;2.60;1.80;;;29.80;46.60;;;29.27;33.68;97808.28;5065921;28;20459;-68
2022/08/05 10:18:35;;;;;;;1.77;1.67;;;29.70;46.00;;;29.45;33.60;97808.09;5065565;28;20452;-67
2022/08/05 10:21:05;;;;;;;1.90;1.80;;;29.80;46.00;;;29.49;32.74;97814.59;5066983;28;20837;-67
2022/08/05 10:23:36;;;;;;;4.03;2.00;;;29.90;45.70;;;28.93;32.91;97769.41;5067540;28;20714;-67
2022/08/05 10:26:07;;;;;;;2.77;2.00;;;29.70;45.50;;;29.24;33.33;97811.75;5062713;28;20928;-68
2022/08/05 10:28:35;;;;;;;2.00;1.90;;;29.60;45.60;;;29.52;32.96;97800.00;5066248;28;20463;-69
2022/08/05 10:31:03;;;;;;;3.33;2.03;;;29.80;45.60;;;29.52;32.36;97772.97;5067178;28;20445;-67